createdAt,value
2018-09-27T00:02:29.383Z,8.73
2018-09-27T00:05:03.763Z,8.50
2018-09-27T00:07:38.486Z,11.10
2018-09-27T00:10:13.030Z,8.73
2018-09-27T00:12:47.456Z,7.00
2018-09-27T00:15:21.872Z,8.23
2018-09-27T00:17:56.799Z,9.57
2018-09-27T00:20:30.959Z,7.47
2018-09-27T00:23:05.639Z,10.43
2018-09-27T00:25:40.414Z,10.10
2018-09-27T00:28:14.722Z,7.17
2018-09-27T00:30:49.203Z,6.93
2018-09-27T00:33:23.648Z,8.57
2018-09-27T00:35:58.486Z,11.43
2018-09-27T00:38:32.732Z,7.60
2018-09-27T00:41:07.992Z,9.47
2018-09-27T00:43:42.392Z,10.93
2018-09-27T00:46:16.855Z,7.10
2018-09-27T00:48:51.192Z,9.37
2018-09-27T00:51:25.317Z,10.90
2018-09-27T00:53:59.819Z,11.37
2018-09-27T00:56:33.847Z,11.57
2018-09-27T00:59:08.352Z,13.77
2018-09-27T01:01:42.552Z,9.03
2018-09-27T01:04:16.716Z,9.30
2018-09-27T01:06:50.920Z,8.30
2018-09-27T01:09:25.012Z,10.53
2018-09-27T01:11:59.788Z,8.17
2018-09-27T01:14:34.888Z,9.60
2018-09-27T01:17:09.052Z,12.03
2018-09-27T01:19:43.080Z,7.27
2018-09-27T01:22:17.068Z,8.90
2018-09-27T01:24:51.945Z,8.57
2018-09-27T01:27:25.870Z,9.50
2018-09-27T01:30:00.590Z,11.30
2018-09-27T01:32:34.795Z,8.50
2018-09-27T01:35:08.842Z,8.20
2018-09-27T01:37:42.748Z,6.77
2018-09-27T01:40:16.856Z,9.17
2018-09-27T01:42:50.860Z,10.03
2018-09-27T01:45:24.606Z,7.03
2018-09-27T01:47:58.820Z,5.43
2018-09-27T01:50:32.782Z,8.37
2018-09-27T01:53:06.844Z,5.70
2018-09-27T01:55:40.906Z,7.67
2018-09-27T01:58:15.037Z,8.60
2018-09-27T02:00:49.882Z,7.10
2018-09-27T02:03:23.956Z,7.07
2018-09-27T02:05:58.741Z,5.57
2018-09-27T02:08:32.937Z,9.33
2018-09-27T02:11:07.282Z,7.63
2018-09-27T02:13:41.093Z,4.77
2018-09-27T02:16:15.272Z,6.00
2018-09-27T02:18:49.571Z,7.13
2018-09-27T02:21:23.351Z,4.40
2018-09-27T02:23:57.535Z,6.60
2018-09-27T02:26:32.298Z,7.43
2018-09-27T02:29:07.609Z,5.03
2018-09-27T02:31:41.332Z,6.47
2018-09-27T02:34:16.026Z,5.20
2018-09-27T02:36:51.056Z,4.90
2018-09-27T02:39:25.286Z,4.63
2018-09-27T02:41:59.383Z,7.30
2018-09-27T02:44:40.289Z,7.50
2018-09-27T02:47:15.131Z,6.07
2018-09-27T02:49:50.140Z,7.90
2018-09-27T02:52:24.571Z,5.93
2018-09-27T02:54:58.613Z,5.57
2018-09-27T02:57:32.782Z,5.63
2018-09-27T03:00:07.016Z,10.60
2018-09-27T03:02:41.941Z,8.63
2018-09-27T03:05:16.021Z,14.83
2018-09-27T03:07:50.131Z,9.27
2018-09-27T03:10:24.476Z,13.90
2018-09-27T03:12:58.356Z,14.83
2018-09-27T03:15:32.442Z,14.03
2018-09-27T03:18:06.472Z,10.33
2018-09-27T03:20:40.967Z,15.40
2018-09-27T03:23:14.731Z,9.93
2018-09-27T03:25:48.685Z,10.77
2018-09-27T03:28:23.094Z,8.30
2018-09-27T03:30:57.392Z,8.80
2018-09-27T03:33:32.128Z,8.50
2018-09-27T03:36:06.191Z,7.77
2018-09-27T03:38:40.166Z,8.13
2018-09-27T03:41:14.331Z,7.07
2018-09-27T03:43:49.174Z,6.63
2018-09-27T03:46:23.350Z,6.27
2018-09-27T03:48:57.761Z,6.80
2018-09-27T03:51:31.720Z,6.23
2018-09-27T03:54:05.907Z,6.33
2018-09-27T03:56:39.642Z,6.67
2018-09-27T03:59:13.813Z,10.20
2018-09-27T04:01:47.816Z,5.07
2018-09-27T04:04:22.960Z,6.23
2018-09-27T04:06:57.268Z,5.00
2018-09-27T04:09:31.461Z,6.13
2018-09-27T04:12:05.782Z,7.73
2018-09-27T04:14:39.992Z,8.87
2018-09-27T04:17:14.266Z,5.30
2018-09-27T04:19:48.468Z,6.20
2018-09-27T04:22:22.826Z,4.90
2018-09-27T04:24:56.843Z,7.80
2018-09-27T04:27:31.616Z,4.60
2018-09-27T04:30:06.490Z,6.27
2018-09-27T04:32:40.466Z,7.20
2018-09-27T04:35:14.672Z,6.87
2018-09-27T04:37:48.496Z,4.37
2018-09-27T04:40:22.682Z,4.40
2018-09-27T04:42:56.581Z,6.13
2018-09-27T04:45:30.830Z,7.63
2018-09-27T04:48:05.197Z,5.87
2018-09-27T04:50:39.315Z,4.60
2018-09-27T04:53:14.087Z,5.83
2018-09-27T04:55:49.063Z,4.27
2018-09-27T04:58:23.952Z,5.07
2018-09-27T05:00:58.879Z,6.60
2018-09-27T05:03:33.150Z,5.20
2018-09-27T05:06:07.648Z,6.80
2018-09-27T05:08:42.585Z,8.13
2018-09-27T05:11:16.751Z,5.83
2018-09-27T05:13:50.728Z,6.57
2018-09-27T05:16:25.556Z,10.00
2018-09-27T05:18:59.656Z,8.43
2018-09-27T05:21:33.686Z,9.93
2018-09-27T05:24:08.472Z,8.67
2018-09-27T05:26:43.248Z,12.73
2018-09-27T05:29:18.196Z,13.07
2018-09-27T05:31:52.452Z,17.23
2018-09-27T05:34:26.393Z,20.00
2018-09-27T05:37:00.533Z,17.70
2018-09-27T05:39:35.052Z,19.00
2018-09-27T05:42:09.112Z,17.97
2018-09-27T05:44:43.388Z,13.97
2018-09-27T05:47:18.309Z,15.80
2018-09-27T05:49:53.716Z,16.70
2018-09-27T05:52:27.788Z,19.47
2018-09-27T05:55:01.978Z,12.07
2018-09-27T05:57:36.156Z,15.70
2018-09-27T06:00:10.655Z,12.67
2018-09-27T06:02:44.792Z,13.60
2018-09-27T06:05:19.981Z,12.93
2018-09-27T06:07:53.966Z,19.13
2018-09-27T06:10:28.583Z,12.30
2018-09-27T06:13:02.806Z,15.67
2018-09-27T06:15:36.661Z,11.33
2018-09-27T06:18:11.344Z,12.70
2018-09-27T06:20:46.029Z,14.93
2018-09-27T06:23:19.807Z,13.10
2018-09-27T06:25:54.038Z,16.20
2018-09-27T06:28:28.229Z,11.53
2018-09-27T06:31:02.211Z,12.83
2018-09-27T06:33:42.801Z,14.97
2018-09-27T06:36:17.253Z,10.17
2018-09-27T06:38:51.330Z,9.07
2018-09-27T06:41:26.455Z,10.70
2018-09-27T06:44:00.483Z,13.07
2018-09-27T06:46:35.576Z,6.97
2018-09-27T06:49:10.251Z,11.80
2018-09-27T06:51:45.245Z,18.13
2018-09-27T06:54:19.234Z,44.07
2018-09-27T06:56:53.086Z,43.93
2018-09-27T06:59:28.005Z,33.90
2018-09-27T07:02:02.322Z,25.10
2018-09-27T07:04:36.535Z,27.07
2018-09-27T07:07:11.236Z,24.57
2018-09-27T07:09:45.690Z,17.33
2018-09-27T07:12:20.188Z,12.87
2018-09-27T07:14:54.760Z,10.07
2018-09-27T07:17:28.830Z,20.67
2018-09-27T07:20:02.715Z,14.87
2018-09-27T07:22:37.793Z,13.33
2018-09-27T07:25:13.101Z,9.03
2018-09-27T07:27:47.111Z,10.07
2018-09-27T07:30:21.070Z,11.47
2018-09-27T07:32:55.320Z,9.90
2018-09-27T07:35:29.276Z,7.40
2018-09-27T07:38:03.426Z,9.07
2018-09-27T07:40:38.323Z,8.85
2018-09-27T07:43:12.637Z,10.08
2018-09-27T07:45:46.797Z,8.40
2018-09-27T07:48:20.766Z,9.13
2018-09-27T07:50:54.893Z,7.67
2018-09-27T07:53:28.960Z,8.70
2018-09-27T07:56:03.101Z,8.63
2018-09-27T07:58:37.301Z,11.70
2018-09-27T08:01:11.506Z,9.13
2018-09-27T08:03:45.666Z,7.95
2018-09-27T08:06:19.811Z,6.72
2018-09-27T08:08:54.778Z,10.30
2018-09-27T08:11:29.093Z,12.58
2018-09-27T08:14:03.586Z,10.98
2018-09-27T08:16:37.632Z,11.83
2018-09-27T08:19:11.540Z,10.28
2018-09-27T08:21:46.024Z,12.25
2018-09-27T08:24:21.031Z,11.78
2018-09-27T08:26:56.296Z,11.53
2018-09-27T08:29:30.409Z,11.12
2018-09-27T08:32:04.410Z,10.28
2018-09-27T08:34:38.530Z,12.13
2018-09-27T08:37:12.561Z,10.60
2018-09-27T08:39:47.672Z,9.45
2018-09-27T08:42:22.022Z,10.68
2018-09-27T08:44:56.273Z,11.38
2018-09-27T08:47:30.370Z,13.68
2018-09-27T08:50:05.006Z,9.80
2018-09-27T08:52:39.101Z,12.10
2018-09-27T08:55:13.410Z,11.38
2018-09-27T08:57:47.571Z,12.80
2018-09-27T09:00:21.861Z,11.20
2018-09-27T09:02:55.733Z,10.05
2018-09-27T09:05:29.841Z,8.93
2018-09-27T09:08:04.656Z,12.88
2018-09-27T09:10:38.900Z,9.45
2018-09-27T09:13:12.936Z,11.22
2018-09-27T09:15:47.532Z,10.70
2018-09-27T09:18:21.607Z,11.22
2018-09-27T09:20:56.350Z,11.83
2018-09-27T09:23:31.159Z,12.30
2018-09-27T09:26:06.015Z,12.33
2018-09-27T09:28:40.760Z,10.20
2018-09-27T09:31:14.686Z,11.68
2018-09-27T09:33:49.351Z,11.63
2018-09-27T09:36:23.618Z,10.03
2018-09-27T09:38:58.608Z,9.65
2018-09-27T09:41:32.895Z,10.40
2018-09-27T09:44:07.000Z,11.35
2018-09-27T09:46:41.526Z,9.98
2018-09-27T09:49:16.042Z,9.80
2018-09-27T09:51:50.168Z,9.93
2018-09-27T09:54:24.920Z,8.68
2018-09-27T09:56:59.985Z,9.30
2018-09-27T09:59:34.529Z,7.95
2018-09-27T10:02:08.756Z,9.23
2018-09-27T10:04:43.541Z,8.23
2018-09-27T10:07:17.711Z,10.48
2018-09-27T10:10:10.403Z,5.92
2018-09-27T10:12:44.696Z,9.13
2018-09-27T10:15:18.843Z,7.00
2018-09-27T10:17:53.568Z,6.17
2018-09-27T10:20:27.714Z,6.97
2018-09-27T10:23:02.116Z,8.00
2018-09-27T10:25:36.290Z,7.65
2018-09-27T10:28:10.635Z,5.08
2018-09-27T10:30:45.489Z,5.83
2018-09-27T10:33:20.549Z,4.65
2018-09-27T10:35:54.600Z,5.37
2018-09-27T10:38:29.395Z,5.58
2018-09-27T10:41:04.385Z,4.95
2018-09-27T10:43:38.931Z,4.33
2018-09-27T10:46:14.245Z,5.62
2018-09-27T10:48:48.857Z,5.33
2018-09-27T10:51:23.206Z,4.33
2018-09-27T10:53:57.850Z,3.40
2018-09-27T10:56:32.930Z,2.85
2018-09-27T10:59:07.286Z,2.83
2018-09-27T11:01:41.737Z,3.17
2018-09-27T11:04:15.972Z,4.65
2018-09-27T11:06:50.309Z,2.62
2018-09-27T11:09:24.992Z,2.65
2018-09-27T11:11:59.721Z,1.67
2018-09-27T11:14:34.138Z,2.70
2018-09-27T11:17:08.498Z,2.22
2018-09-27T11:19:42.699Z,1.72
2018-09-27T11:22:17.080Z,2.85
2018-09-27T11:24:51.715Z,2.42
2018-09-27T11:27:25.891Z,2.17
2018-09-27T11:30:05.987Z,3.00
2018-09-27T11:32:41.510Z,4.28
2018-09-27T11:35:16.006Z,3.40
2018-09-27T11:37:50.461Z,2.77
2018-09-27T11:40:24.962Z,1.82
2018-09-27T11:43:00.286Z,2.95
2018-09-27T11:45:34.486Z,4.40
2018-09-27T11:48:08.946Z,3.27
2018-09-27T11:50:43.829Z,2.27
2018-09-27T11:53:18.867Z,1.47
2018-09-27T11:55:53.682Z,2.75
2018-09-27T11:58:28.035Z,1.82
2018-09-27T12:01:03.034Z,1.62
2018-09-27T12:03:37.571Z,1.82
2018-09-27T12:06:11.486Z,1.35
2018-09-27T12:08:45.543Z,2.70
2018-09-27T12:11:20.017Z,1.30
2018-09-27T12:13:54.747Z,1.47
2018-09-27T12:16:29.161Z,2.05
2018-09-27T12:19:04.570Z,2.67
2018-09-27T12:21:39.345Z,1.87
2018-09-27T12:24:13.806Z,3.83
2018-09-27T12:26:48.463Z,1.57
2018-09-27T12:29:22.597Z,1.25
2018-09-27T12:31:57.611Z,1.90
2018-09-27T12:34:32.492Z,2.15
2018-09-27T12:37:07.216Z,2.05
2018-09-27T12:39:42.607Z,1.30
2018-09-27T12:42:17.438Z,3.08
2018-09-27T12:44:52.411Z,1.70
2018-09-27T12:47:26.667Z,2.05
2018-09-27T12:50:00.705Z,1.80
2018-09-27T12:52:35.011Z,1.65
2018-09-27T12:55:09.096Z,2.15
2018-09-27T12:57:43.438Z,2.85
2018-09-27T13:00:17.617Z,3.05
2018-09-27T13:02:52.525Z,4.15
2018-09-27T13:05:26.485Z,2.05
2018-09-27T13:08:01.160Z,2.02
2018-09-27T13:10:35.616Z,3.83
2018-09-27T13:13:09.841Z,1.82
2018-09-27T13:15:43.937Z,1.87
2018-09-27T13:18:18.193Z,1.30
2018-09-27T13:20:52.520Z,2.95
2018-09-27T13:23:26.715Z,4.67
2018-09-27T13:26:01.008Z,1.90
2018-09-27T13:28:35.844Z,2.02
2018-09-27T13:31:10.513Z,2.83
2018-09-27T13:33:44.856Z,2.52
2018-09-27T13:36:20.165Z,2.90
2018-09-27T13:38:55.328Z,3.35
2018-09-27T13:41:29.557Z,3.42
2018-09-27T13:44:03.826Z,4.37
2018-09-27T13:46:38.411Z,4.12
2018-09-27T13:49:12.739Z,2.10
2018-09-27T13:51:47.027Z,3.05
2018-09-27T13:54:21.537Z,4.75
2018-09-27T13:56:56.035Z,4.20
2018-09-27T13:59:30.170Z,2.10
2018-09-27T14:02:04.387Z,2.12
2018-09-27T14:04:39.500Z,2.52
2018-09-27T14:07:14.237Z,2.27
2018-09-27T14:09:48.341Z,2.72
2018-09-27T14:12:23.376Z,2.72
2018-09-27T14:14:57.906Z,3.75
2018-09-27T14:17:32.678Z,6.30
2018-09-27T14:20:07.676Z,3.35
2018-09-27T14:22:42.726Z,4.10
2018-09-27T14:25:17.521Z,3.15
2018-09-27T14:27:52.239Z,4.53
2018-09-27T14:30:27.111Z,3.98
2018-09-27T14:33:02.187Z,3.52
2018-09-27T14:35:36.939Z,4.92
2018-09-27T14:38:11.314Z,2.20
2018-09-27T14:40:45.394Z,4.08
2018-09-27T14:43:19.764Z,3.00
2018-09-27T14:45:54.165Z,3.25
2018-09-27T14:48:29.804Z,3.17
2018-09-27T14:51:04.269Z,3.80
2018-09-27T14:53:38.842Z,3.72
2018-09-27T14:56:12.946Z,2.87
2018-09-27T14:58:48.373Z,2.72
2018-09-27T15:01:22.560Z,6.70
2018-09-27T15:03:56.940Z,3.52
2018-09-27T15:06:31.203Z,2.85
2018-09-27T15:09:09.359Z,5.65
2018-09-27T15:11:43.915Z,3.77
2018-09-27T15:14:18.083Z,3.27
2018-09-27T15:16:52.172Z,2.62
2018-09-27T15:19:27.945Z,2.55
2018-09-27T15:22:02.893Z,5.45
2018-09-27T15:24:37.136Z,4.00
2018-09-27T15:27:11.476Z,8.58
2018-09-27T15:29:46.515Z,2.90
2018-09-27T15:32:21.088Z,6.50
2018-09-27T15:34:55.628Z,5.35
2018-09-27T15:37:29.406Z,4.20
2018-09-27T15:40:03.967Z,2.92
2018-09-27T15:42:37.987Z,5.87
2018-09-27T15:45:12.448Z,2.50
2018-09-27T15:47:46.666Z,4.53
2018-09-27T15:50:21.007Z,2.50
2018-09-27T15:52:55.138Z,3.70
2018-09-27T15:55:29.953Z,6.42
2018-09-27T15:58:04.053Z,5.05
2018-09-27T16:00:38.368Z,3.85
2018-09-27T16:03:14.190Z,2.77
2018-09-27T16:05:54.022Z,3.75
2018-09-27T16:08:28.289Z,3.72
2018-09-27T16:11:03.277Z,4.97
2018-09-27T16:13:38.455Z,3.80
2018-09-27T16:16:16.261Z,2.90
2018-09-27T16:18:50.568Z,3.27
2018-09-27T16:21:24.712Z,3.58
2018-09-27T16:23:59.270Z,4.37
2018-09-27T16:26:33.706Z,4.05
2018-09-27T16:29:08.392Z,8.20
2018-09-27T16:31:43.830Z,3.80
2018-09-27T16:34:18.145Z,4.45
2018-09-27T16:36:52.673Z,4.50
2018-09-27T16:39:27.881Z,4.15
2018-09-27T16:42:02.125Z,2.72
2018-09-27T16:44:36.350Z,4.25
2018-09-27T16:47:11.054Z,5.78
2018-09-27T16:49:45.347Z,5.05
2018-09-27T16:52:20.016Z,5.17
2018-09-27T16:54:54.419Z,3.83
2018-09-27T16:57:28.782Z,5.12
2018-09-27T17:00:03.177Z,4.67
2018-09-27T17:02:37.629Z,4.30
2018-09-27T17:05:11.770Z,4.00
2018-09-27T17:07:46.324Z,4.42
2018-09-27T17:10:21.100Z,3.90
2018-09-27T17:12:56.008Z,4.25
2018-09-27T17:15:30.222Z,5.40
2018-09-27T17:18:05.146Z,4.97
2018-09-27T17:20:39.677Z,2.67
2018-09-27T17:23:14.708Z,4.75
2018-09-27T17:25:48.826Z,3.80
2018-09-27T17:28:24.178Z,5.67
2018-09-27T17:30:58.861Z,3.83
2018-09-27T17:33:33.616Z,5.83
2018-09-27T17:36:07.948Z,3.75
2018-09-27T17:38:42.726Z,4.80
2018-09-27T17:41:17.217Z,5.45
2018-09-27T17:43:51.818Z,4.60
2018-09-27T17:46:27.196Z,4.08
2018-09-27T17:49:01.621Z,6.10
2018-09-27T17:51:35.870Z,5.22
2018-09-27T17:54:10.373Z,5.83
2018-09-27T17:56:45.671Z,3.90
2018-09-27T17:59:20.380Z,7.20
2018-09-27T18:01:55.295Z,4.60
2018-09-27T18:04:29.898Z,6.03
2018-09-27T18:07:04.958Z,6.83
2018-09-27T18:09:39.550Z,6.47
2018-09-27T18:12:13.834Z,3.77
2018-09-27T18:14:47.845Z,6.60
2018-09-27T18:17:22.019Z,6.67
2018-09-27T18:19:57.025Z,4.33
2018-09-27T18:22:32.275Z,6.17
2018-09-27T18:25:07.194Z,4.33
2018-09-27T18:27:41.632Z,5.03
2018-09-27T18:30:15.799Z,5.27
2018-09-27T18:32:50.128Z,6.77
2018-09-27T18:35:24.656Z,4.83
2018-09-27T18:38:00.043Z,3.97
2018-09-27T18:40:35.041Z,5.17
2018-09-27T18:43:10.246Z,5.60
2018-09-27T18:45:44.620Z,7.43
2018-09-27T18:48:20.370Z,7.27
2018-09-27T18:50:56.162Z,8.03
2018-09-27T18:53:31.145Z,4.70
2018-09-27T18:56:05.672Z,5.90
2018-09-27T18:58:40.047Z,9.40
2018-09-27T19:01:14.466Z,9.73
2018-09-27T19:03:48.800Z,9.70
2018-09-27T19:06:23.449Z,7.73
2018-09-27T19:08:57.666Z,7.33
2018-09-27T19:11:33.007Z,6.47
2018-09-27T19:14:08.068Z,6.37
2018-09-27T19:16:42.492Z,7.20
2018-09-27T19:19:16.850Z,6.07
2018-09-27T19:21:51.639Z,10.13
2018-09-27T19:24:25.759Z,8.10
2018-09-27T19:27:00.359Z,9.10
2018-09-27T19:29:35.730Z,8.47
2018-09-27T19:32:10.401Z,8.83
2018-09-27T19:34:45.272Z,9.63
2018-09-27T19:37:21.202Z,6.80
2018-09-27T19:39:55.562Z,8.47
2018-09-27T19:42:30.700Z,6.87
2018-09-27T19:45:06.016Z,7.93
2018-09-27T19:47:40.437Z,8.23
2018-09-27T19:50:16.135Z,9.10
2018-09-27T19:52:50.624Z,6.37
2018-09-27T19:55:25.122Z,8.03
2018-09-27T19:57:59.209Z,7.63
2018-09-27T20:00:33.636Z,8.70
2018-09-27T20:03:08.575Z,10.47
2018-09-27T20:05:42.672Z,8.97
2018-09-27T20:08:16.735Z,8.50
2018-09-27T20:10:51.330Z,6.83
2018-09-27T20:13:25.582Z,8.20
2018-09-27T20:16:00.618Z,7.40
2018-09-27T20:18:36.468Z,7.73
2018-09-27T20:21:10.875Z,10.17
2018-09-27T20:23:45.094Z,7.37
2018-09-27T20:26:19.539Z,11.10
2018-09-27T20:28:53.624Z,8.83
2018-09-27T20:31:28.556Z,16.77
2018-09-27T20:34:03.484Z,10.00
2018-09-27T20:36:37.729Z,9.60
2018-09-27T20:39:12.847Z,14.07
2018-09-27T20:41:46.960Z,10.27
2018-09-27T20:44:21.355Z,9.23
2018-09-27T20:46:55.481Z,10.30
2018-09-27T20:49:29.924Z,12.60
2018-09-27T20:52:04.457Z,9.77
2018-09-27T20:54:39.316Z,10.10
2018-09-27T20:57:13.802Z,10.13
2018-09-27T20:59:48.613Z,7.70
2018-09-27T21:02:23.051Z,7.70
2018-09-27T21:04:57.464Z,13.13
2018-09-27T21:07:31.860Z,9.33
2018-09-27T21:10:07.265Z,11.23
2018-09-27T21:12:41.839Z,10.17
2018-09-27T21:15:16.279Z,7.97
2018-09-27T21:17:50.535Z,8.93
2018-09-27T21:20:25.360Z,9.63
2018-09-27T21:22:59.689Z,14.20
2018-09-27T21:25:33.993Z,7.60
2018-09-27T21:28:07.896Z,8.80
2018-09-27T21:30:42.400Z,11.43
2018-09-27T21:33:17.140Z,9.57
2018-09-27T21:35:51.656Z,10.30
2018-09-27T21:38:25.571Z,11.07
2018-09-27T21:40:59.946Z,11.10
2018-09-27T21:43:34.329Z,9.00
2018-09-27T21:46:08.795Z,11.37
2018-09-27T21:48:43.355Z,9.13
2018-09-27T21:51:17.912Z,10.30
2018-09-27T21:53:52.652Z,8.60
2018-09-27T21:56:27.672Z,35.50
2018-09-27T21:59:02.676Z,29.73
2018-09-27T22:01:37.713Z,14.47
2018-09-27T22:04:12.486Z,13.13
2018-09-27T22:06:48.461Z,13.37
2018-09-27T22:09:23.890Z,11.77
2018-09-27T22:11:58.363Z,14.40
2018-09-27T22:14:32.994Z,12.20
2018-09-27T22:17:08.116Z,12.97
2018-09-27T22:19:43.026Z,16.37
2018-09-27T22:22:18.452Z,14.97
2018-09-27T22:24:53.490Z,12.90
2018-09-27T22:27:27.974Z,14.17
2018-09-27T22:30:02.561Z,23.90
2018-09-27T22:32:37.292Z,14.07
2018-09-27T22:35:12.674Z,14.00
2018-09-27T22:37:47.611Z,10.53
2018-09-27T22:40:22.242Z,13.27
2018-09-27T22:42:56.992Z,12.67
2018-09-27T22:45:32.176Z,12.90
2018-09-27T22:48:06.801Z,9.10
2018-09-27T22:50:41.273Z,8.87
2018-09-27T22:53:15.577Z,11.47
2018-09-27T22:55:50.377Z,9.93
2018-09-27T22:58:27.298Z,8.73
2018-09-27T23:01:02.573Z,9.70
2018-09-27T23:03:37.501Z,8.40
2018-09-27T23:06:12.132Z,6.47
2018-09-27T23:08:46.989Z,6.90
2018-09-27T23:11:21.497Z,9.30
2018-09-27T23:13:56.478Z,7.03
2018-09-27T23:16:31.081Z,7.83
2018-09-27T23:19:05.295Z,9.07
2018-09-27T23:21:40.092Z,10.20
2018-09-27T23:24:14.856Z,9.80
2018-09-27T23:26:49.688Z,10.13
2018-09-27T23:29:24.404Z,6.73
2018-09-27T23:31:58.980Z,8.43
2018-09-27T23:34:34.151Z,6.67
2018-09-27T23:37:09.672Z,11.00
2018-09-27T23:39:44.306Z,9.37
2018-09-27T23:42:19.716Z,7.57
2018-09-27T23:44:54.431Z,8.83
2018-09-27T23:47:30.191Z,8.23
2018-09-27T23:50:05.351Z,10.00
2018-09-27T23:52:40.870Z,9.43
2018-09-27T23:55:16.041Z,9.20
2018-09-27T23:57:51.138Z,9.43
